sensor_id;sensor_type;location;lat;lon;timestamp;P1;durP1;ratioP1;P2;durP2;ratioP2
56173;SDS011;42058;52.308;20.924;2022-08-19T00:00:38;11.30;;;7.73;;
56173;SDS011;42058;52.308;20.924;2022-08-19T00:03:05;9.60;;;7.53;;
56173;SDS011;42058;52.308;20.924;2022-08-19T00:05:33;13.37;;;7.70;;
56173;SDS011;42058;52.308;20.924;2022-08-19T00:07:59;9.77;;;6.90;;
56173;SDS011;42058;52.308;20.924;2022-08-19T00:10:25;11.53;;;8.37;;
56173;SDS011;42058;52.308;20.924;2022-08-19T00:12:52;14.20;;;7.83;;
56173;SDS011;42058;52.308;20.924;2022-08-19T00:15:18;11.47;;;8.00;;
56173;SDS011;42058;52.308;20.924;2022-08-19T00:17:47;12.90;;;8.27;;
56173;SDS011;42058;52.308;20.924;2022-08-19T00:20:15;10.97;;;8.20;;
56173;SDS011;42058;52.308;20.924;2022-08-19T00:22:45;13.28;;;7.40;;
56173;SDS011;42058;52.308;20.924;2022-08-19T00:25:13;14.87;;;7.93;;
56173;SDS011;42058;52.308;20.924;2022-08-19T00:27:41;13.17;;;7.97;;
56173;SDS011;42058;52.308;20.924;2022-08-19T00:30:07;11.00;;;8.00;;
56173;SDS011;42058;52.308;20.924;2022-08-19T00:32:36;11.83;;;8.10;;
56173;SDS011;42058;52.308;20.924;2022-08-19T00:35:04;9.80;;;8.10;;
56173;SDS011;42058;52.308;20.924;2022-08-19T00:37:31;16.90;;;9.23;;
56173;SDS011;42058;52.308;20.924;2022-08-19T00:39:58;11.63;;;8.40;;
56173;SDS011;42058;52.308;20.924;2022-08-19T00:42:24;9.77;;;7.97;;
56173;SDS011;42058;52.308;20.924;2022-08-19T00:44:52;15.53;;;7.53;;
56173;SDS011;42058;52.308;20.924;2022-08-19T00:47:18;10.17;;;7.60;;
56173;SDS011;42058;52.308;20.924;2022-08-19T00:49:50;8.43;;;7.27;;
56173;SDS011;42058;52.308;20.924;2022-08-19T00:52:21;10.32;;;7.70;;
56173;SDS011;42058;52.308;20.924;2022-08-19T00:55:04;12.53;;;8.00;;
56173;SDS011;42058;52.308;20.924;2022-08-19T00:57:37;11.03;;;7.58;;
56173;SDS011;42058;52.308;20.924;2022-08-19T01:00:08;13.20;;;8.00;;
56173;SDS011;42058;52.308;20.924;2022-08-19T01:02:38;13.07;;;8.00;;
56173;SDS011;42058;52.308;20.924;2022-08-19T01:05:08;14.60;;;7.80;;
56173;SDS011;42058;52.308;20.924;2022-08-19T01:07:39;8.50;;;7.10;;
56173;SDS011;42058;52.308;20.924;2022-08-19T01:10:10;15.60;;;7.37;;
56173;SDS011;42058;52.308;20.924;2022-08-19T01:12:39;10.17;;;8.40;;
56173;SDS011;42058;52.308;20.924;2022-08-19T01:15:06;11.00;;;8.00;;
56173;SDS011;42058;52.308;20.924;2022-08-19T01:17:36;11.73;;;8.00;;
56173;SDS011;42058;52.308;20.924;2022-08-19T01:20:05;14.23;;;8.63;;
56173;SDS011;42058;52.308;20.924;2022-08-19T01:22:41;11.50;;;7.87;;
56173;SDS011;42058;52.308;20.924;2022-08-19T01:25:09;11.47;;;8.03;;
56173;SDS011;42058;52.308;20.924;2022-08-19T01:27:37;15.60;;;7.93;;
56173;SDS011;42058;52.308;20.924;2022-08-19T01:30:05;9.17;;;7.80;;
56173;SDS011;42058;52.308;20.924;2022-08-19T01:32:33;12.50;;;7.23;;
56173;SDS011;42058;52.308;20.924;2022-08-19T01:35:01;14.00;;;7.60;;
56173;SDS011;42058;52.308;20.924;2022-08-19T01:37:30;9.70;;;7.37;;
56173;SDS011;42058;52.308;20.924;2022-08-19T01:40:13;10.43;;;7.60;;
56173;SDS011;42058;52.308;20.924;2022-08-19T01:42:40;13.10;;;8.10;;
56173;SDS011;42058;52.308;20.924;2022-08-19T01:45:06;11.93;;;7.80;;
56173;SDS011;42058;52.308;20.924;2022-08-19T01:47:37;15.10;;;8.67;;
56173;SDS011;42058;52.308;20.924;2022-08-19T01:50:05;11.63;;;7.93;;
56173;SDS011;42058;52.308;20.924;2022-08-19T01:52:35;9.57;;;7.33;;
56173;SDS011;42058;52.308;20.924;2022-08-19T01:55:04;12.13;;;7.93;;
56173;SDS011;42058;52.308;20.924;2022-08-19T01:57:34;12.67;;;8.00;;
56173;SDS011;42058;52.308;20.924;2022-08-19T02:00:01;10.00;;;7.90;;
56173;SDS011;42058;52.308;20.924;2022-08-19T02:02:33;11.85;;;8.45;;
56173;SDS011;42058;52.308;20.924;2022-08-19T02:04:59;20.43;;;8.20;;
56173;SDS011;42058;52.308;20.924;2022-08-19T02:07:25;17.70;;;8.33;;
56173;SDS011;42058;52.308;20.924;2022-08-19T02:09:53;10.00;;;7.93;;
56173;SDS011;42058;52.308;20.924;2022-08-19T02:12:20;10.07;;;7.77;;
56173;SDS011;42058;52.308;20.924;2022-08-19T02:14:47;16.67;;;8.43;;
56173;SDS011;42058;52.308;20.924;2022-08-19T02:17:13;12.20;;;8.40;;
56173;SDS011;42058;52.308;20.924;2022-08-19T02:19:39;12.03;;;8.40;;
56173;SDS011;42058;52.308;20.924;2022-08-19T02:22:06;18.30;;;8.63;;
56173;SDS011;42058;52.308;20.924;2022-08-19T02:24:33;9.43;;;8.00;;
56173;SDS011;42058;52.308;20.924;2022-08-19T02:26:59;12.37;;;7.83;;
56173;SDS011;42058;52.308;20.924;2022-08-19T02:29:25;13.20;;;8.50;;
56173;SDS011;42058;52.308;20.924;2022-08-19T02:31:51;14.70;;;8.33;;
56173;SDS011;42058;52.308;20.924;2022-08-19T02:34:18;16.83;;;8.40;;
56173;SDS011;42058;52.308;20.924;2022-08-19T02:36:44;14.83;;;8.40;;
56173;SDS011;42058;52.308;20.924;2022-08-19T02:39:10;14.27;;;9.20;;
56173;SDS011;42058;52.308;20.924;2022-08-19T02:41:36;12.17;;;8.43;;
56173;SDS011;42058;52.308;20.924;2022-08-19T02:44:02;18.03;;;9.73;;
56173;SDS011;42058;52.308;20.924;2022-08-19T02:46:30;12.97;;;9.23;;
56173;SDS011;42058;52.308;20.924;2022-08-19T02:49:02;16.43;;;9.20;;
56173;SDS011;42058;52.308;20.924;2022-08-19T02:51:35;13.57;;;8.57;;
56173;SDS011;42058;52.308;20.924;2022-08-19T02:54:05;15.27;;;8.97;;
56173;SDS011;42058;52.308;20.924;2022-08-19T02:56:36;16.90;;;9.10;;
56173;SDS011;42058;52.308;20.924;2022-08-19T02:59:05;11.22;;;8.35;;
56173;SDS011;42058;52.308;20.924;2022-08-19T03:01:34;16.40;;;8.77;;
56173;SDS011;42058;52.308;20.924;2022-08-19T03:04:02;18.30;;;8.90;;
56173;SDS011;42058;52.308;20.924;2022-08-19T03:06:31;13.93;;;9.03;;
56173;SDS011;42058;52.308;20.924;2022-08-19T03:08:58;15.43;;;9.43;;
56173;SDS011;42058;52.308;20.924;2022-08-19T03:11:29;21.47;;;9.23;;
56173;SDS011;42058;52.308;20.924;2022-08-19T03:13:55;14.47;;;9.53;;
56173;SDS011;42058;52.308;20.924;2022-08-19T03:16:23;14.93;;;8.50;;
56173;SDS011;42058;52.308;20.924;2022-08-19T03:18:53;15.53;;;8.80;;
56173;SDS011;42058;52.308;20.924;2022-08-19T03:21:22;11.87;;;8.40;;
56173;SDS011;42058;52.308;20.924;2022-08-19T03:23:53;12.53;;;8.63;;
56173;SDS011;42058;52.308;20.924;2022-08-19T03:26:23;20.62;;;8.38;;
56173;SDS011;42058;52.308;20.924;2022-08-19T03:28:50;15.43;;;9.27;;
56173;SDS011;42058;52.308;20.924;2022-08-19T03:31:18;16.57;;;9.23;;
56173;SDS011;42058;52.308;20.924;2022-08-19T03:33:50;14.47;;;9.73;;
56173;SDS011;42058;52.308;20.924;2022-08-19T03:36:24;19.80;;;9.27;;
56173;SDS011;42058;52.308;20.924;2022-08-19T03:38:53;11.43;;;8.40;;
56173;SDS011;42058;52.308;20.924;2022-08-19T03:41:26;18.27;;;8.73;;
56173;SDS011;42058;52.308;20.924;2022-08-19T03:43:58;12.00;;;8.77;;
56173;SDS011;42058;52.308;20.924;2022-08-19T03:46:26;15.03;;;8.73;;
56173;SDS011;42058;52.308;20.924;2022-08-19T03:48:56;15.23;;;9.30;;
56173;SDS011;42058;52.308;20.924;2022-08-19T03:51:29;14.30;;;9.37;;
56173;SDS011;42058;52.308;20.924;2022-08-19T03:53:58;14.77;;;9.33;;
56173;SDS011;42058;52.308;20.924;2022-08-19T03:56:27;16.60;;;8.90;;
56173;SDS011;42058;52.308;20.924;2022-08-19T03:58:55;12.13;;;8.80;;
56173;SDS011;42058;52.308;20.924;2022-08-19T04:01:23;13.07;;;9.27;;
56173;SDS011;42058;52.308;20.924;2022-08-19T04:03:53;15.30;;;9.17;;
56173;SDS011;42058;52.308;20.924;2022-08-19T04:06:22;15.67;;;9.27;;
56173;SDS011;42058;52.308;20.924;2022-08-19T04:08:56;13.10;;;9.30;;
56173;SDS011;42058;52.308;20.924;2022-08-19T04:11:25;14.67;;;8.57;;
56173;SDS011;42058;52.308;20.924;2022-08-19T04:13:55;13.00;;;9.03;;
56173;SDS011;42058;52.308;20.924;2022-08-19T04:16:23;17.07;;;9.10;;
56173;SDS011;42058;52.308;20.924;2022-08-19T04:18:56;15.13;;;8.60;;
56173;SDS011;42058;52.308;20.924;2022-08-19T04:21:25;14.27;;;8.80;;
56173;SDS011;42058;52.308;20.924;2022-08-19T04:23:53;17.10;;;9.43;;
56173;SDS011;42058;52.308;20.924;2022-08-19T04:26:23;17.00;;;9.60;;
56173;SDS011;42058;52.308;20.924;2022-08-19T04:28:52;20.50;;;9.13;;
56173;SDS011;42058;52.308;20.924;2022-08-19T04:31:21;14.10;;;9.90;;
56173;SDS011;42058;52.308;20.924;2022-08-19T04:33:54;13.80;;;8.67;;
56173;SDS011;42058;52.308;20.924;2022-08-19T04:36:24;13.90;;;8.20;;
56173;SDS011;42058;52.308;20.924;2022-08-19T04:38:54;14.80;;;9.10;;
56173;SDS011;42058;52.308;20.924;2022-08-19T04:41:23;14.67;;;8.33;;
56173;SDS011;42058;52.308;20.924;2022-08-19T04:44:09;13.47;;;9.00;;
56173;SDS011;42058;52.308;20.924;2022-08-19T04:46:36;15.40;;;8.93;;
56173;SDS011;42058;52.308;20.924;2022-08-19T04:49:03;19.47;;;8.73;;
56173;SDS011;42058;52.308;20.924;2022-08-19T04:51:32;13.60;;;8.53;;
56173;SDS011;42058;52.308;20.924;2022-08-19T04:53:59;15.90;;;8.73;;
56173;SDS011;42058;52.308;20.924;2022-08-19T04:56:27;18.43;;;9.77;;
56173;SDS011;42058;52.308;20.924;2022-08-19T04:58:54;22.10;;;9.17;;
56173;SDS011;42058;52.308;20.924;2022-08-19T05:01:23;23.23;;;8.67;;
56173;SDS011;42058;52.308;20.924;2022-08-19T05:03:54;14.00;;;9.15;;
56173;SDS011;42058;52.308;20.924;2022-08-19T05:06:22;13.80;;;8.93;;
56173;SDS011;42058;52.308;20.924;2022-08-19T05:08:49;18.30;;;8.80;;
56173;SDS011;42058;52.308;20.924;2022-08-19T05:11:16;14.13;;;8.93;;
56173;SDS011;42058;52.308;20.924;2022-08-19T05:13:49;14.00;;;8.20;;
56173;SDS011;42058;52.308;20.924;2022-08-19T05:16:17;18.63;;;8.13;;
56173;SDS011;42058;52.308;20.924;2022-08-19T05:18:45;10.47;;;8.80;;
56173;SDS011;42058;52.308;20.924;2022-08-19T05:21:31;13.40;;;8.77;;
56173;SDS011;42058;52.308;20.924;2022-08-19T05:24:16;15.10;;;8.97;;
56173;SDS011;42058;52.308;20.924;2022-08-19T05:26:46;12.23;;;8.23;;
56173;SDS011;42058;52.308;20.924;2022-08-19T05:29:16;16.60;;;8.33;;
56173;SDS011;42058;52.308;20.924;2022-08-19T05:31:45;17.97;;;8.47;;
56173;SDS011;42058;52.308;20.924;2022-08-19T05:34:15;15.77;;;7.70;;
56173;SDS011;42058;52.308;20.924;2022-08-19T05:36:44;15.10;;;8.63;;
56173;SDS011;42058;52.308;20.924;2022-08-19T05:39:17;16.00;;;8.10;;
56173;SDS011;42058;52.308;20.924;2022-08-19T05:41:46;11.87;;;7.80;;
56173;SDS011;42058;52.308;20.924;2022-08-19T05:44:18;13.98;;;8.40;;
56173;SDS011;42058;52.308;20.924;2022-08-19T05:46:45;18.03;;;8.47;;
56173;SDS011;42058;52.308;20.924;2022-08-19T05:49:14;12.33;;;7.93;;
56173;SDS011;42058;52.308;20.924;2022-08-19T05:51:42;13.07;;;7.60;;
56173;SDS011;42058;52.308;20.924;2022-08-19T05:54:08;19.03;;;8.23;;
56173;SDS011;42058;52.308;20.924;2022-08-19T05:56:37;14.27;;;7.10;;
56173;SDS011;42058;52.308;20.924;2022-08-19T05:59:05;14.23;;;7.70;;
56173;SDS011;42058;52.308;20.924;2022-08-19T06:01:37;12.97;;;7.47;;
56173;SDS011;42058;52.308;20.924;2022-08-19T06:04:05;12.37;;;6.63;;
56173;SDS011;42058;52.308;20.924;2022-08-19T06:06:33;16.10;;;7.17;;
56173;SDS011;42058;52.308;20.924;2022-08-19T06:09:06;17.83;;;7.07;;
56173;SDS011;42058;52.308;20.924;2022-08-19T06:11:34;14.83;;;6.93;;
56173;SDS011;42058;52.308;20.924;2022-08-19T06:14:17;11.07;;;6.77;;
56173;SDS011;42058;52.308;20.924;2022-08-19T06:16:48;11.33;;;6.70;;
56173;SDS011;42058;52.308;20.924;2022-08-19T06:19:17;23.87;;;8.93;;
56173;SDS011;42058;52.308;20.924;2022-08-19T06:21:46;15.33;;;7.23;;
56173;SDS011;42058;52.308;20.924;2022-08-19T06:24:16;14.47;;;7.30;;
56173;SDS011;42058;52.308;20.924;2022-08-19T06:26:48;14.27;;;7.50;;
56173;SDS011;42058;52.308;20.924;2022-08-19T06:29:17;13.83;;;6.83;;
56173;SDS011;42058;52.308;20.924;2022-08-19T06:31:46;15.67;;;7.03;;
56173;SDS011;42058;52.308;20.924;2022-08-19T06:34:19;9.47;;;6.67;;
56173;SDS011;42058;52.308;20.924;2022-08-19T06:36:51;11.97;;;6.60;;
56173;SDS011;42058;52.308;20.924;2022-08-19T06:39:18;8.13;;;6.40;;
56173;SDS011;42058;52.308;20.924;2022-08-19T06:41:50;13.03;;;6.67;;
56173;SDS011;42058;52.308;20.924;2022-08-19T06:44:21;9.47;;;6.53;;
56173;SDS011;42058;52.308;20.924;2022-08-19T06:46:50;11.87;;;7.47;;
56173;SDS011;42058;52.308;20.924;2022-08-19T06:49:17;11.53;;;7.00;;
56173;SDS011;42058;52.308;20.924;2022-08-19T06:51:44;10.20;;;6.60;;
56173;SDS011;42058;52.308;20.924;2022-08-19T06:54:15;7.20;;;6.50;;
56173;SDS011;42058;52.308;20.924;2022-08-19T06:56:43;11.53;;;6.80;;
56173;SDS011;42058;52.308;20.924;2022-08-19T06:59:12;13.17;;;6.90;;
56173;SDS011;42058;52.308;20.924;2022-08-19T07:01:49;14.63;;;6.77;;
56173;SDS011;42058;52.308;20.924;2022-08-19T07:04:17;9.97;;;6.50;;
56173;SDS011;42058;52.308;20.924;2022-08-19T07:06:47;7.73;;;6.20;;
56173;SDS011;42058;52.308;20.924;2022-08-19T07:09:15;9.27;;;6.70;;
56173;SDS011;42058;52.308;20.924;2022-08-19T07:11:48;9.67;;;6.67;;
56173;SDS011;42058;52.308;20.924;2022-08-19T07:14:13;11.67;;;6.43;;
56173;SDS011;42058;52.308;20.924;2022-08-19T07:16:43;13.27;;;6.83;;
56173;SDS011;42058;52.308;20.924;2022-08-19T07:19:12;12.60;;;6.60;;
56173;SDS011;42058;52.308;20.924;2022-08-19T07:21:40;15.63;;;6.90;;
56173;SDS011;42058;52.308;20.924;2022-08-19T07:24:06;10.53;;;6.50;;
56173;SDS011;42058;52.308;20.924;2022-08-19T07:26:37;8.17;;;6.90;;
56173;SDS011;42058;52.308;20.924;2022-08-19T07:29:06;13.83;;;6.53;;
56173;SDS011;42058;52.308;20.924;2022-08-19T07:31:33;9.33;;;6.00;;
56173;SDS011;42058;52.308;20.924;2022-08-19T07:34:03;7.93;;;5.53;;
56173;SDS011;42058;52.308;20.924;2022-08-19T07:36:33;9.40;;;5.93;;
56173;SDS011;42058;52.308;20.924;2022-08-19T07:39:04;9.37;;;5.93;;
56173;SDS011;42058;52.308;20.924;2022-08-19T07:41:37;12.17;;;6.00;;
56173;SDS011;42058;52.308;20.924;2022-08-19T07:44:04;14.97;;;6.53;;
56173;SDS011;42058;52.308;20.924;2022-08-19T07:46:34;11.90;;;6.13;;
56173;SDS011;42058;52.308;20.924;2022-08-19T07:49:03;17.60;;;6.20;;
56173;SDS011;42058;52.308;20.924;2022-08-19T07:51:31;20.87;;;6.20;;
56173;SDS011;42058;52.308;20.924;2022-08-19T07:53:58;13.50;;;6.07;;
56173;SDS011;42058;52.308;20.924;2022-08-19T07:56:25;10.27;;;5.70;;
56173;SDS011;42058;52.308;20.924;2022-08-19T07:58:52;15.73;;;6.10;;
56173;SDS011;42058;52.308;20.924;2022-08-19T08:01:20;9.10;;;5.77;;
56173;SDS011;42058;52.308;20.924;2022-08-19T08:03:50;11.93;;;6.57;;
56173;SDS011;42058;52.308;20.924;2022-08-19T08:06:37;10.87;;;5.93;;
56173;SDS011;42058;52.308;20.924;2022-08-19T08:09:24;10.13;;;6.03;;
56173;SDS011;42058;52.308;20.924;2022-08-19T08:11:55;8.53;;;6.05;;
56173;SDS011;42058;52.308;20.924;2022-08-19T08:14:29;14.23;;;6.23;;
56173;SDS011;42058;52.308;20.924;2022-08-19T08:17:03;8.10;;;5.90;;
56173;SDS011;42058;52.308;20.924;2022-08-19T08:19:30;6.73;;;6.00;;
56173;SDS011;42058;52.308;20.924;2022-08-19T08:21:58;11.70;;;6.23;;
56173;SDS011;42058;52.308;20.924;2022-08-19T08:24:27;11.17;;;6.40;;
56173;SDS011;42058;52.308;20.924;2022-08-19T08:26:57;6.47;;;5.87;;
56173;SDS011;42058;52.308;20.924;2022-08-19T08:29:30;7.80;;;5.67;;
56173;SDS011;42058;52.308;20.924;2022-08-19T08:31:55;9.70;;;6.43;;
56173;SDS011;42058;52.308;20.924;2022-08-19T08:34:21;11.17;;;6.10;;
56173;SDS011;42058;52.308;20.924;2022-08-19T08:36:47;13.83;;;6.00;;
56173;SDS011;42058;52.308;20.924;2022-08-19T08:39:17;12.53;;;5.80;;
56173;SDS011;42058;52.308;20.924;2022-08-19T08:41:51;13.93;;;6.28;;
56173;SDS011;42058;52.308;20.924;2022-08-19T08:44:31;8.73;;;5.97;;
56173;SDS011;42058;52.308;20.924;2022-08-19T08:47:04;9.98;;;6.03;;
56173;SDS011;42058;52.308;20.924;2022-08-19T08:49:41;11.60;;;5.92;;
56173;SDS011;42058;52.308;20.924;2022-08-19T08:52:17;10.38;;;6.10;;
56173;SDS011;42058;52.308;20.924;2022-08-19T08:54:53;10.88;;;6.03;;
56173;SDS011;42058;52.308;20.924;2022-08-19T08:57:27;11.73;;;6.12;;
56173;SDS011;42058;52.308;20.924;2022-08-19T09:00:05;8.30;;;5.97;;
56173;SDS011;42058;52.308;20.924;2022-08-19T09:05:02;9.93;;;5.90;;
56173;SDS011;42058;52.308;20.924;2022-08-19T09:07:40;10.50;;;5.47;;
56173;SDS011;42058;52.308;20.924;2022-08-19T09:10:29;6.62;;;5.50;;
56173;SDS011;42058;52.308;20.924;2022-08-19T09:16:19;17.15;;;6.78;;
56173;SDS011;42058;52.308;20.924;2022-08-19T09:18:55;15.28;;;6.22;;
56173;SDS011;42058;52.308;20.924;2022-08-19T09:21:20;9.68;;;5.87;;
56173;SDS011;42058;52.308;20.924;2022-08-19T09:23:51;16.93;;;6.08;;
56173;SDS011;42058;52.308;20.924;2022-08-19T09:26:18;7.95;;;5.33;;
56173;SDS011;42058;52.308;20.924;2022-08-19T09:28:48;7.15;;;5.28;;
56173;SDS011;42058;52.308;20.924;2022-08-19T09:31:19;13.18;;;5.78;;
56173;SDS011;42058;52.308;20.924;2022-08-19T09:33:51;8.73;;;5.92;;
56173;SDS011;42058;52.308;20.924;2022-08-19T09:36:23;10.05;;;6.08;;
56173;SDS011;42058;52.308;20.924;2022-08-19T09:38:52;12.23;;;5.45;;
56173;SDS011;42058;52.308;20.924;2022-08-19T09:41:20;11.83;;;5.28;;
56173;SDS011;42058;52.308;20.924;2022-08-19T09:43:49;7.72;;;5.87;;
56173;SDS011;42058;52.308;20.924;2022-08-19T09:46:19;10.68;;;5.97;;
56173;SDS011;42058;52.308;20.924;2022-08-19T09:48:49;6.60;;;5.58;;
56173;SDS011;42058;52.308;20.924;2022-08-19T09:51:22;16.75;;;5.78;;
56173;SDS011;42058;52.308;20.924;2022-08-19T09:53:52;10.25;;;6.28;;
56173;SDS011;42058;52.308;20.924;2022-08-19T09:56:19;9.73;;;5.50;;
56173;SDS011;42058;52.308;20.924;2022-08-19T09:58:47;14.13;;;6.08;;
56173;SDS011;42058;52.308;20.924;2022-08-19T10:01:18;12.75;;;5.67;;
56173;SDS011;42058;52.308;20.924;2022-08-19T10:03:50;8.45;;;5.10;;
56173;SDS011;42058;52.308;20.924;2022-08-19T10:06:21;11.85;;;4.70;;
56173;SDS011;42058;52.308;20.924;2022-08-19T10:08:50;8.10;;;5.00;;
56173;SDS011;42058;52.308;20.924;2022-08-19T10:11:18;12.93;;;5.58;;
56173;SDS011;42058;52.308;20.924;2022-08-19T10:13:47;11.05;;;5.10;;
56173;SDS011;42058;52.308;20.924;2022-08-19T10:16:16;7.15;;;4.92;;
56173;SDS011;42058;52.308;20.924;2022-08-19T10:18:45;10.65;;;4.75;;
56173;SDS011;42058;52.308;20.924;2022-08-19T10:21:16;11.00;;;4.92;;
56173;SDS011;42058;52.308;20.924;2022-08-19T10:23:47;8.03;;;4.95;;
56173;SDS011;42058;52.308;20.924;2022-08-19T10:26:18;15.03;;;5.05;;
56173;SDS011;42058;52.308;20.924;2022-08-19T10:28:48;10.93;;;5.37;;
56173;SDS011;42058;52.308;20.924;2022-08-19T10:31:21;10.72;;;4.97;;
56173;SDS011;42058;52.308;20.924;2022-08-19T10:33:47;11.22;;;5.05;;
56173;SDS011;42058;52.308;20.924;2022-08-19T10:36:15;9.88;;;4.72;;
56173;SDS011;42058;52.308;20.924;2022-08-19T10:38:45;7.65;;;4.80;;
56173;SDS011;42058;52.308;20.924;2022-08-19T10:41:15;10.25;;;4.92;;
56173;SDS011;42058;52.308;20.924;2022-08-19T10:43:50;6.37;;;4.45;;
56173;SDS011;42058;52.308;20.924;2022-08-19T10:46:23;10.00;;;4.95;;
56173;SDS011;42058;52.308;20.924;2022-08-19T10:48:52;10.78;;;5.10;;
56173;SDS011;42058;52.308;20.924;2022-08-19T10:51:20;18.60;;;6.33;;
56173;SDS011;42058;52.308;20.924;2022-08-19T10:54:06;10.75;;;4.75;;
56173;SDS011;42058;52.308;20.924;2022-08-19T10:56:32;7.90;;;4.95;;
56173;SDS011;42058;52.308;20.924;2022-08-19T10:59:21;6.58;;;4.75;;
56173;SDS011;42058;52.308;20.924;2022-08-19T11:01:53;13.53;;;5.05;;
56173;SDS011;42058;52.308;20.924;2022-08-19T11:04:25;7.83;;;5.30;;
56173;SDS011;42058;52.308;20.924;2022-08-19T11:06:52;13.72;;;4.62;;
56173;SDS011;42058;52.308;20.924;2022-08-19T11:09:19;8.13;;;5.10;;
56173;SDS011;42058;52.308;20.924;2022-08-19T11:11:54;14.98;;;5.40;;
56173;SDS011;42058;52.308;20.924;2022-08-19T11:14:22;6.08;;;4.58;;
56173;SDS011;42058;52.308;20.924;2022-08-19T11:16:49;10.95;;;4.75;;
56173;SDS011;42058;52.308;20.924;2022-08-19T11:19:19;8.98;;;4.40;;
56173;SDS011;42058;52.308;20.924;2022-08-19T11:21:46;12.55;;;4.45;;
56173;SDS011;42058;52.308;20.924;2022-08-19T11:24:15;12.33;;;4.90;;
56173;SDS011;42058;52.308;20.924;2022-08-19T11:26:47;13.13;;;4.78;;
56173;SDS011;42058;52.308;20.924;2022-08-19T11:29:18;5.83;;;4.53;;
56173;SDS011;42058;52.308;20.924;2022-08-19T11:31:47;9.45;;;5.03;;
56173;SDS011;42058;52.308;20.924;2022-08-19T11:34:16;14.85;;;5.25;;
56173;SDS011;42058;52.308;20.924;2022-08-19T11:36:46;10.58;;;4.67;;
56173;SDS011;42058;52.308;20.924;2022-08-19T11:39:16;8.50;;;4.70;;
56173;SDS011;42058;52.308;20.924;2022-08-19T11:41:45;7.37;;;4.83;;
56173;SDS011;42058;52.308;20.924;2022-08-19T11:44:11;9.98;;;5.08;;
56173;SDS011;42058;52.308;20.924;2022-08-19T11:46:40;7.20;;;4.80;;
56173;SDS011;42058;52.308;20.924;2022-08-19T11:49:10;8.45;;;4.50;;
56173;SDS011;42058;52.308;20.924;2022-08-19T11:51:36;10.82;;;4.50;;
56173;SDS011;42058;52.308;20.924;2022-08-19T11:54:03;11.83;;;5.20;;
56173;SDS011;42058;52.308;20.924;2022-08-19T11:56:31;9.65;;;4.40;;
56173;SDS011;42058;52.308;20.924;2022-08-19T11:58:58;14.15;;;4.80;;
56173;SDS011;42058;52.308;20.924;2022-08-19T12:01:27;10.58;;;5.00;;
56173;SDS011;42058;52.308;20.924;2022-08-19T12:03:54;8.10;;;4.62;;
56173;SDS011;42058;52.308;20.924;2022-08-19T12:06:26;8.45;;;4.65;;
56173;SDS011;42058;52.308;20.924;2022-08-19T12:08:55;7.33;;;4.50;;
56173;SDS011;42058;52.308;20.924;2022-08-19T12:11:22;10.10;;;4.75;;
56173;SDS011;42058;52.308;20.924;2022-08-19T12:13:49;9.88;;;4.72;;
56173;SDS011;42058;52.308;20.924;2022-08-19T12:16:17;16.97;;;4.87;;
56173;SDS011;42058;52.308;20.924;2022-08-19T12:18:46;12.98;;;5.28;;
56173;SDS011;42058;52.308;20.924;2022-08-19T12:21:13;8.70;;;4.60;;
56173;SDS011;42058;52.308;20.924;2022-08-19T12:23:41;13.22;;;5.00;;
56173;SDS011;42058;52.308;20.924;2022-08-19T12:26:10;20.32;;;4.70;;
56173;SDS011;42058;52.308;20.924;2022-08-19T12:28:37;7.65;;;4.85;;
56173;SDS011;42058;52.308;20.924;2022-08-19T12:31:04;7.05;;;4.30;;
56173;SDS011;42058;52.308;20.924;2022-08-19T12:33:31;8.93;;;4.15;;
56173;SDS011;42058;52.308;20.924;2022-08-19T12:36:02;7.20;;;4.35;;
56173;SDS011;42058;52.308;20.924;2022-08-19T12:38:31;6.35;;;4.37;;
56173;SDS011;42058;52.308;20.924;2022-08-19T12:40:59;8.48;;;4.75;;
56173;SDS011;42058;52.308;20.924;2022-08-19T12:43:28;6.70;;;4.45;;
56173;SDS011;42058;52.308;20.924;2022-08-19T12:45:55;10.53;;;5.33;;
56173;SDS011;42058;52.308;20.924;2022-08-19T12:48:21;6.22;;;4.22;;
56173;SDS011;42058;52.308;20.924;2022-08-19T12:50:47;12.43;;;4.72;;
56173;SDS011;42058;52.308;20.924;2022-08-19T12:53:14;14.07;;;4.70;;
56173;SDS011;42058;52.308;20.924;2022-08-19T12:55:41;8.75;;;4.65;;
56173;SDS011;42058;52.308;20.924;2022-08-19T12:58:10;11.73;;;4.17;;
56173;SDS011;42058;52.308;20.924;2022-08-19T13:00:38;11.12;;;4.50;;
56173;SDS011;42058;52.308;20.924;2022-08-19T13:03:06;12.50;;;4.60;;
56173;SDS011;42058;52.308;20.924;2022-08-19T13:05:32;4.83;;;3.90;;
56173;SDS011;42058;52.308;20.924;2022-08-19T13:07:59;11.90;;;4.30;;
56173;SDS011;42058;52.308;20.924;2022-08-19T13:10:27;6.97;;;4.25;;
56173;SDS011;42058;52.308;20.924;2022-08-19T13:12:59;5.67;;;4.30;;
56173;SDS011;42058;52.308;20.924;2022-08-19T13:15:27;7.33;;;4.05;;
56173;SDS011;42058;52.308;20.924;2022-08-19T13:17:55;7.05;;;4.03;;
56173;SDS011;42058;52.308;20.924;2022-08-19T13:20:23;7.37;;;4.25;;
56173;SDS011;42058;52.308;20.924;2022-08-19T13:22:49;9.25;;;4.40;;
56173;SDS011;42058;52.308;20.924;2022-08-19T13:25:17;5.47;;;4.03;;
56173;SDS011;42058;52.308;20.924;2022-08-19T13:27:45;9.00;;;4.40;;
56173;SDS011;42058;52.308;20.924;2022-08-19T13:30:14;12.65;;;4.30;;
56173;SDS011;42058;52.308;20.924;2022-08-19T13:33:02;6.42;;;4.12;;
56173;SDS011;42058;52.308;20.924;2022-08-19T13:35:50;10.25;;;4.53;;
56173;SDS011;42058;52.308;20.924;2022-08-19T13:38:21;10.65;;;4.45;;
56173;SDS011;42058;52.308;20.924;2022-08-19T13:40:49;10.25;;;4.50;;
56173;SDS011;42058;52.308;20.924;2022-08-19T13:43:18;13.62;;;4.20;;
56173;SDS011;42058;52.308;20.924;2022-08-19T13:45:48;10.32;;;4.28;;
56173;SDS011;42058;52.308;20.924;2022-08-19T13:48:21;5.83;;;4.30;;
56173;SDS011;42058;52.308;20.924;2022-08-19T13:50:48;12.47;;;4.28;;
56173;SDS011;42058;52.308;20.924;2022-08-19T13:53:14;13.68;;;4.20;;
56173;SDS011;42058;52.308;20.924;2022-08-19T13:55:42;9.43;;;4.30;;
56173;SDS011;42058;52.308;20.924;2022-08-19T13:58:10;5.97;;;4.10;;
56173;SDS011;42058;52.308;20.924;2022-08-19T14:00:39;6.35;;;4.08;;
56173;SDS011;42058;52.308;20.924;2022-08-19T14:03:09;9.45;;;4.20;;
56173;SDS011;42058;52.308;20.924;2022-08-19T14:05:36;8.05;;;4.37;;
56173;SDS011;42058;52.308;20.924;2022-08-19T14:08:03;8.00;;;4.10;;
56173;SDS011;42058;52.308;20.924;2022-08-19T14:10:30;9.43;;;4.60;;
56173;SDS011;42058;52.308;20.924;2022-08-19T14:12:57;6.80;;;4.37;;
56173;SDS011;42058;52.308;20.924;2022-08-19T14:15:28;5.47;;;4.03;;
56173;SDS011;42058;52.308;20.924;2022-08-19T14:17:55;6.72;;;3.98;;
56173;SDS011;42058;52.308;20.924;2022-08-19T14:20:22;10.60;;;4.33;;
56173;SDS011;42058;52.308;20.924;2022-08-19T14:22:49;12.20;;;4.35;;
56173;SDS011;42058;52.308;20.924;2022-08-19T14:25:17;4.55;;;4.00;;
56173;SDS011;42058;52.308;20.924;2022-08-19T14:27:47;8.80;;;4.62;;
56173;SDS011;42058;52.308;20.924;2022-08-19T14:30:15;10.55;;;4.08;;
56173;SDS011;42058;52.308;20.924;2022-08-19T14:32:47;8.50;;;4.10;;
56173;SDS011;42058;52.308;20.924;2022-08-19T14:35:14;7.83;;;3.70;;
56173;SDS011;42058;52.308;20.924;2022-08-19T14:37:42;8.90;;;4.17;;
56173;SDS011;42058;52.308;20.924;2022-08-19T14:40:10;7.87;;;4.00;;
56173;SDS011;42058;52.308;20.924;2022-08-19T14:42:39;8.00;;;4.47;;
56173;SDS011;42058;52.308;20.924;2022-08-19T14:45:05;9.23;;;4.12;;